sensor_id;sensor_type;location;lat;lon;timestamp;P1;durP1;ratioP1;P2;durP2;ratioP2
33279;SDS011;20403;43.114;12.434;2023-06-22T00:01:58;8.13;;;4.43;;
33279;SDS011;20403;43.114;12.434;2023-06-22T00:04:24;6.60;;;4.57;;
33279;SDS011;20403;43.114;12.434;2023-06-22T00:06:50;12.38;;;4.97;;
33279;SDS011;20403;43.114;12.434;2023-06-22T00:09:15;6.88;;;4.50;;
33279;SDS011;20403;43.114;12.434;2023-06-22T00:11:41;10.32;;;4.75;;
33279;SDS011;20403;43.114;12.434;2023-06-22T00:14:06;7.55;;;4.57;;
33279;SDS011;20403;43.114;12.434;2023-06-22T00:16:32;9.20;;;4.43;;
33279;SDS011;20403;43.114;12.434;2023-06-22T00:18:57;5.88;;;4.28;;
33279;SDS011;20403;43.114;12.434;2023-06-22T00:21:25;9.75;;;5.25;;
33279;SDS011;20403;43.114;12.434;2023-06-22T00:23:55;10.98;;;4.47;;
33279;SDS011;20403;43.114;12.434;2023-06-22T00:26:21;6.10;;;4.63;;
33279;SDS011;20403;43.114;12.434;2023-06-22T00:28:46;8.13;;;4.38;;
33279;SDS011;20403;43.114;12.434;2023-06-22T00:31:12;8.68;;;4.78;;
33279;SDS011;20403;43.114;12.434;2023-06-22T00:33:38;11.77;;;4.70;;
33279;SDS011;20403;43.114;12.434;2023-06-22T00:36:04;6.85;;;4.53;;
33279;SDS011;20403;43.114;12.434;2023-06-22T00:38:29;9.02;;;4.80;;
33279;SDS011;20403;43.114;12.434;2023-06-22T00:40:55;8.45;;;4.45;;
33279;SDS011;20403;43.114;12.434;2023-06-22T00:43:20;8.52;;;4.50;;
33279;SDS011;20403;43.114;12.434;2023-06-22T00:45:46;10.43;;;4.43;;
33279;SDS011;20403;43.114;12.434;2023-06-22T00:48:12;12.90;;;5.60;;
33279;SDS011;20403;43.114;12.434;2023-06-22T00:50:39;16.55;;;5.00;;
33279;SDS011;20403;43.114;12.434;2023-06-22T00:53:05;8.77;;;5.22;;
33279;SDS011;20403;43.114;12.434;2023-06-22T00:55:33;9.75;;;4.78;;
33279;SDS011;20403;43.114;12.434;2023-06-22T00:58:02;7.30;;;5.20;;
33279;SDS011;20403;43.114;12.434;2023-06-22T01:00:30;6.40;;;4.65;;
33279;SDS011;20403;43.114;12.434;2023-06-22T01:02:57;7.82;;;4.60;;
33279;SDS011;20403;43.114;12.434;2023-06-22T01:05:23;10.70;;;4.60;;
33279;SDS011;20403;43.114;12.434;2023-06-22T01:08:00;10.38;;;4.88;;
33279;SDS011;20403;43.114;12.434;2023-06-22T01:13:02;5.25;;;4.47;;
33279;SDS011;20403;43.114;12.434;2023-06-22T01:18:21;7.00;;;5.10;;
33279;SDS011;20403;43.114;12.434;2023-06-22T01:20:51;8.57;;;5.28;;
33279;SDS011;20403;43.114;12.434;2023-06-22T01:26:28;9.73;;;5.35;;
33279;SDS011;20403;43.114;12.434;2023-06-22T01:29:04;10.75;;;4.70;;
33279;SDS011;20403;43.114;12.434;2023-06-22T01:31:32;8.65;;;5.47;;
33279;SDS011;20403;43.114;12.434;2023-06-22T01:34:01;7.55;;;4.88;;
33279;SDS011;20403;43.114;12.434;2023-06-22T01:36:28;6.82;;;5.10;;
33279;SDS011;20403;43.114;12.434;2023-06-22T01:38:55;8.15;;;5.05;;
33279;SDS011;20403;43.114;12.434;2023-06-22T01:41:24;11.48;;;5.35;;
33279;SDS011;20403;43.114;12.434;2023-06-22T01:43:50;9.75;;;5.10;;
33279;SDS011;20403;43.114;12.434;2023-06-22T01:46:17;11.77;;;5.38;;
33279;SDS011;20403;43.114;12.434;2023-06-22T01:48:44;8.35;;;5.25;;
33279;SDS011;20403;43.114;12.434;2023-06-22T01:51:11;8.45;;;5.10;;
33279;SDS011;20403;43.114;12.434;2023-06-22T01:53:37;8.80;;;4.93;;
33279;SDS011;20403;43.114;12.434;2023-06-22T01:56:02;10.85;;;6.22;;
33279;SDS011;20403;43.114;12.434;2023-06-22T01:58:29;8.52;;;4.55;;
33279;SDS011;20403;43.114;12.434;2023-06-22T02:00:58;11.13;;;5.13;;
33279;SDS011;20403;43.114;12.434;2023-06-22T02:03:50;9.35;;;4.68;;
33279;SDS011;20403;43.114;12.434;2023-06-22T02:06:24;11.40;;;5.65;;
33279;SDS011;20403;43.114;12.434;2023-06-22T02:09:00;9.85;;;5.55;;
33279;SDS011;20403;43.114;12.434;2023-06-22T02:11:28;10.40;;;5.32;;
33279;SDS011;20403;43.114;12.434;2023-06-22T02:13:56;9.57;;;5.55;;
33279;SDS011;20403;43.114;12.434;2023-06-22T02:16:23;11.88;;;4.93;;
33279;SDS011;20403;43.114;12.434;2023-06-22T02:18:49;8.25;;;4.57;;
33279;SDS011;20403;43.114;12.434;2023-06-22T02:21:21;12.38;;;5.32;;
33279;SDS011;20403;43.114;12.434;2023-06-22T02:23:46;11.73;;;4.82;;
33279;SDS011;20403;43.114;12.434;2023-06-22T02:26:12;8.30;;;4.70;;
33279;SDS011;20403;43.114;12.434;2023-06-22T02:28:38;7.22;;;4.63;;
33279;SDS011;20403;43.114;12.434;2023-06-22T02:31:04;9.10;;;4.55;;
33279;SDS011;20403;43.114;12.434;2023-06-22T02:33:29;8.68;;;5.03;;
33279;SDS011;20403;43.114;12.434;2023-06-22T02:35:55;12.43;;;5.28;;
33279;SDS011;20403;43.114;12.434;2023-06-22T02:38:20;8.70;;;5.03;;
33279;SDS011;20403;43.114;12.434;2023-06-22T02:40:46;11.57;;;4.90;;
33279;SDS011;20403;43.114;12.434;2023-06-22T02:43:12;8.50;;;4.78;;
33279;SDS011;20403;43.114;12.434;2023-06-22T02:45:38;7.75;;;5.57;;
33279;SDS011;20403;43.114;12.434;2023-06-22T02:48:04;8.35;;;5.07;;
33279;SDS011;20403;43.114;12.434;2023-06-22T02:50:30;7.47;;;5.15;;
33279;SDS011;20403;43.114;12.434;2023-06-22T02:52:55;11.80;;;5.63;;
33279;SDS011;20403;43.114;12.434;2023-06-22T02:55:21;8.57;;;5.38;;
33279;SDS011;20403;43.114;12.434;2023-06-22T02:57:46;11.85;;;5.30;;
33279;SDS011;20403;43.114;12.434;2023-06-22T03:00:12;11.63;;;5.80;;
33279;SDS011;20403;43.114;12.434;2023-06-22T03:02:46;9.80;;;4.80;;
33279;SDS011;20403;43.114;12.434;2023-06-22T03:05:13;16.50;;;5.60;;
33279;SDS011;20403;43.114;12.434;2023-06-22T03:07:42;9.48;;;5.22;;
33279;SDS011;20403;43.114;12.434;2023-06-22T03:10:12;12.32;;;5.70;;
33279;SDS011;20403;43.114;12.434;2023-06-22T03:12:38;9.90;;;5.00;;
33279;SDS011;20403;43.114;12.434;2023-06-22T03:15:08;9.68;;;5.63;;
33279;SDS011;20403;43.114;12.434;2023-06-22T03:17:35;9.82;;;5.90;;
33279;SDS011;20403;43.114;12.434;2023-06-22T03:20:04;9.13;;;5.43;;
33279;SDS011;20403;43.114;12.434;2023-06-22T03:22:34;8.88;;;5.20;;
33279;SDS011;20403;43.114;12.434;2023-06-22T03:25:00;8.52;;;5.22;;
33279;SDS011;20403;43.114;12.434;2023-06-22T03:27:26;11.05;;;5.25;;
33279;SDS011;20403;43.114;12.434;2023-06-22T03:29:51;12.65;;;5.40;;
33279;SDS011;20403;43.114;12.434;2023-06-22T03:32:17;8.02;;;5.68;;
33279;SDS011;20403;43.114;12.434;2023-06-22T03:34:42;9.10;;;4.63;;
33279;SDS011;20403;43.114;12.434;2023-06-22T03:37:12;7.28;;;5.20;;
33279;SDS011;20403;43.114;12.434;2023-06-22T03:39:39;8.63;;;4.72;;
33279;SDS011;20403;43.114;12.434;2023-06-22T03:42:04;9.00;;;5.13;;
33279;SDS011;20403;43.114;12.434;2023-06-22T03:44:30;6.43;;;5.35;;
33279;SDS011;20403;43.114;12.434;2023-06-22T03:46:56;12.98;;;5.28;;
33279;SDS011;20403;43.114;12.434;2023-06-22T03:49:21;7.00;;;4.93;;
33279;SDS011;20403;43.114;12.434;2023-06-22T03:51:47;10.30;;;5.53;;
33279;SDS011;20403;43.114;12.434;2023-06-22T03:54:12;12.57;;;5.80;;
33279;SDS011;20403;43.114;12.434;2023-06-22T03:56:37;7.93;;;4.85;;
33279;SDS011;20403;43.114;12.434;2023-06-22T03:59:03;9.07;;;5.35;;
33279;SDS011;20403;43.114;12.434;2023-06-22T04:01:28;9.20;;;5.85;;
33279;SDS011;20403;43.114;12.434;2023-06-22T04:03:54;11.43;;;5.40;;
33279;SDS011;20403;43.114;12.434;2023-06-22T04:06:19;6.47;;;4.88;;
33279;SDS011;20403;43.114;12.434;2023-06-22T04:08:45;13.07;;;5.45;;
33279;SDS011;20403;43.114;12.434;2023-06-22T04:11:15;12.50;;;5.82;;
33279;SDS011;20403;43.114;12.434;2023-06-22T04:13:41;7.93;;;5.00;;
33279;SDS011;20403;43.114;12.434;2023-06-22T04:16:07;11.07;;;6.05;;
33279;SDS011;20403;43.114;12.434;2023-06-22T04:18:32;8.30;;;5.68;;
33279;SDS011;20403;43.114;12.434;2023-06-22T04:20:57;12.38;;;5.88;;
33279;SDS011;20403;43.114;12.434;2023-06-22T04:23:23;10.95;;;6.07;;
33279;SDS011;20403;43.114;12.434;2023-06-22T04:25:48;11.43;;;5.70;;
33279;SDS011;20403;43.114;12.434;2023-06-22T04:28:14;10.70;;;5.60;;
33279;SDS011;20403;43.114;12.434;2023-06-22T04:30:39;13.90;;;5.60;;
33279;SDS011;20403;43.114;12.434;2023-06-22T04:33:12;13.07;;;5.55;;
33279;SDS011;20403;43.114;12.434;2023-06-22T04:35:38;11.13;;;5.68;;
33279;SDS011;20403;43.114;12.434;2023-06-22T04:38:06;9.43;;;5.28;;
33279;SDS011;20403;43.114;12.434;2023-06-22T04:40:32;10.88;;;5.85;;
33279;SDS011;20403;43.114;12.434;2023-06-22T04:42:57;20.58;;;5.63;;
33279;SDS011;20403;43.114;12.434;2023-06-22T04:45:22;19.30;;;5.57;;
33279;SDS011;20403;43.114;12.434;2023-06-22T04:47:48;16.88;;;6.32;;
33279;SDS011;20403;43.114;12.434;2023-06-22T04:50:13;16.98;;;5.93;;
33279;SDS011;20403;43.114;12.434;2023-06-22T04:52:39;18.63;;;5.88;;
33279;SDS011;20403;43.114;12.434;2023-06-22T04:55:05;13.82;;;6.82;;
33279;SDS011;20403;43.114;12.434;2023-06-22T04:57:31;16.52;;;6.60;;
33279;SDS011;20403;43.114;12.434;2023-06-22T04:59:59;14.48;;;6.65;;
33279;SDS011;20403;43.114;12.434;2023-06-22T05:02:46;10.60;;;6.90;;
33279;SDS011;20403;43.114;12.434;2023-06-22T05:05:12;19.80;;;6.97;;
33279;SDS011;20403;43.114;12.434;2023-06-22T05:07:44;13.50;;;7.38;;
33279;SDS011;20403;43.114;12.434;2023-06-22T05:10:13;12.43;;;7.70;;
33279;SDS011;20403;43.114;12.434;2023-06-22T05:12:39;10.38;;;7.30;;
33279;SDS011;20403;43.114;12.434;2023-06-22T05:15:06;18.10;;;7.70;;
33279;SDS011;20403;43.114;12.434;2023-06-22T05:17:32;11.10;;;7.43;;
33279;SDS011;20403;43.114;12.434;2023-06-22T05:19:57;28.55;;;9.35;;
33279;SDS011;20403;43.114;12.434;2023-06-22T05:22:23;13.18;;;7.88;;
33279;SDS011;20403;43.114;12.434;2023-06-22T05:24:48;9.43;;;6.75;;
33279;SDS011;20403;43.114;12.434;2023-06-22T05:27:14;11.10;;;6.60;;
33279;SDS011;20403;43.114;12.434;2023-06-22T05:29:39;9.57;;;6.53;;
33279;SDS011;20403;43.114;12.434;2023-06-22T05:32:05;11.27;;;6.75;;
33279;SDS011;20403;43.114;12.434;2023-06-22T05:34:31;7.28;;;6.40;;
33279;SDS011;20403;43.114;12.434;2023-06-22T05:36:57;20.65;;;7.20;;
33279;SDS011;20403;43.114;12.434;2023-06-22T05:39:24;9.43;;;6.63;;
33279;SDS011;20403;43.114;12.434;2023-06-22T05:41:50;17.15;;;7.03;;
33279;SDS011;20403;43.114;12.434;2023-06-22T05:44:15;12.75;;;6.78;;
33279;SDS011;20403;43.114;12.434;2023-06-22T05:46:41;12.82;;;6.57;;
33279;SDS011;20403;43.114;12.434;2023-06-22T05:51:37;7.72;;;6.13;;
33279;SDS011;20403;43.114;12.434;2023-06-22T05:54:02;13.10;;;6.65;;
33279;SDS011;20403;43.114;12.434;2023-06-22T05:56:28;13.63;;;6.78;;
33279;SDS011;20403;43.114;12.434;2023-06-22T05:58:53;12.68;;;6.57;;
33279;SDS011;20403;43.114;12.434;2023-06-22T06:01:19;10.30;;;6.15;;
33279;SDS011;20403;43.114;12.434;2023-06-22T06:03:45;13.38;;;6.43;;
33279;SDS011;20403;43.114;12.434;2023-06-22T06:06:10;12.77;;;5.90;;
33279;SDS011;20403;43.114;12.434;2023-06-22T06:08:36;14.88;;;6.72;;
33279;SDS011;20403;43.114;12.434;2023-06-22T06:11:02;11.07;;;6.57;;
33279;SDS011;20403;43.114;12.434;2023-06-22T06:13:28;14.52;;;6.93;;
33279;SDS011;20403;43.114;12.434;2023-06-22T06:15:53;14.43;;;6.15;;
33279;SDS011;20403;43.114;12.434;2023-06-22T06:18:22;11.45;;;6.15;;
33279;SDS011;20403;43.114;12.434;2023-06-22T06:20:47;10.75;;;5.75;;
33279;SDS011;20403;43.114;12.434;2023-06-22T06:23:12;14.55;;;6.20;;
33279;SDS011;20403;43.114;12.434;2023-06-22T06:25:38;13.85;;;6.30;;
33279;SDS011;20403;43.114;12.434;2023-06-22T06:28:03;8.65;;;5.95;;
33279;SDS011;20403;43.114;12.434;2023-06-22T06:30:29;9.23;;;5.93;;
33279;SDS011;20403;43.114;12.434;2023-06-22T06:32:55;10.15;;;5.93;;
33279;SDS011;20403;43.114;12.434;2023-06-22T06:35:20;8.60;;;5.30;;
33279;SDS011;20403;43.114;12.434;2023-06-22T06:37:47;8.60;;;5.28;;
33279;SDS011;20403;43.114;12.434;2023-06-22T06:40:13;9.68;;;6.15;;
33279;SDS011;20403;43.114;12.434;2023-06-22T06:42:40;9.65;;;6.00;;
33279;SDS011;20403;43.114;12.434;2023-06-22T06:45:09;11.15;;;6.05;;
33279;SDS011;20403;43.114;12.434;2023-06-22T06:47:37;7.60;;;5.40;;
33279;SDS011;20403;43.114;12.434;2023-06-22T06:50:03;10.23;;;6.13;;
33279;SDS011;20403;43.114;12.434;2023-06-22T06:52:29;15.02;;;6.13;;
33279;SDS011;20403;43.114;12.434;2023-06-22T06:54:55;12.98;;;6.70;;
33279;SDS011;20403;43.114;12.434;2023-06-22T06:57:20;13.82;;;5.72;;
33279;SDS011;20403;43.114;12.434;2023-06-22T06:59:47;15.32;;;6.38;;
33279;SDS011;20403;43.114;12.434;2023-06-22T07:02:13;10.35;;;5.30;;
33279;SDS011;20403;43.114;12.434;2023-06-22T07:04:39;8.05;;;5.13;;
33279;SDS011;20403;43.114;12.434;2023-06-22T07:07:05;14.10;;;6.43;;
33279;SDS011;20403;43.114;12.434;2023-06-22T07:09:30;15.18;;;5.68;;
33279;SDS011;20403;43.114;12.434;2023-06-22T07:11:56;12.60;;;6.13;;
33279;SDS011;20403;43.114;12.434;2023-06-22T07:14:21;9.38;;;5.00;;
33279;SDS011;20403;43.114;12.434;2023-06-22T07:16:46;8.45;;;5.25;;
33279;SDS011;20403;43.114;12.434;2023-06-22T07:19:12;9.68;;;5.82;;
33279;SDS011;20403;43.114;12.434;2023-06-22T07:21:38;14.70;;;5.18;;
33279;SDS011;20403;43.114;12.434;2023-06-22T07:24:04;10.40;;;5.00;;
33279;SDS011;20403;43.114;12.434;2023-06-22T07:26:31;9.45;;;4.65;;
33279;SDS011;20403;43.114;12.434;2023-06-22T07:28:56;9.75;;;5.10;;
33279;SDS011;20403;43.114;12.434;2023-06-22T07:31:23;13.25;;;5.53;;
33279;SDS011;20403;43.114;12.434;2023-06-22T07:33:49;10.57;;;5.68;;
33279;SDS011;20403;43.114;12.434;2023-06-22T07:36:16;13.85;;;5.63;;
33279;SDS011;20403;43.114;12.434;2023-06-22T07:38:42;17.33;;;6.00;;
33279;SDS011;20403;43.114;12.434;2023-06-22T07:41:07;7.03;;;5.15;;
33279;SDS011;20403;43.114;12.434;2023-06-22T07:43:33;12.43;;;5.53;;
33279;SDS011;20403;43.114;12.434;2023-06-22T07:46:01;11.13;;;5.60;;
33279;SDS011;20403;43.114;12.434;2023-06-22T07:48:30;10.23;;;5.38;;
33279;SDS011;20403;43.114;12.434;2023-06-22T07:50:55;10.82;;;5.63;;
33279;SDS011;20403;43.114;12.434;2023-06-22T07:53:21;9.88;;;5.47;;
33279;SDS011;20403;43.114;12.434;2023-06-22T07:55:48;12.93;;;5.72;;
33279;SDS011;20403;43.114;12.434;2023-06-22T07:58:13;13.30;;;6.25;;
33279;SDS011;20403;43.114;12.434;2023-06-22T08:00:40;10.23;;;5.43;;
33279;SDS011;20403;43.114;12.434;2023-06-22T08:03:06;8.60;;;5.07;;
33279;SDS011;20403;43.114;12.434;2023-06-22T08:05:32;11.25;;;6.15;;
33279;SDS011;20403;43.114;12.434;2023-06-22T08:07:57;15.82;;;5.50;;
33279;SDS011;20403;43.114;12.434;2023-06-22T08:10:23;11.30;;;6.32;;
33279;SDS011;20403;43.114;12.434;2023-06-22T08:12:48;13.60;;;5.60;;
33279;SDS011;20403;43.114;12.434;2023-06-22T08:15:14;15.07;;;5.60;;
33279;SDS011;20403;43.114;12.434;2023-06-22T08:17:39;10.68;;;5.03;;
33279;SDS011;20403;43.114;12.434;2023-06-22T08:20:06;9.30;;;5.18;;
33279;SDS011;20403;43.114;12.434;2023-06-22T08:22:37;13.93;;;5.63;;
33279;SDS011;20403;43.114;12.434;2023-06-22T08:25:02;14.82;;;5.60;;
33279;SDS011;20403;43.114;12.434;2023-06-22T08:27:29;9.82;;;4.82;;
33279;SDS011;20403;43.114;12.434;2023-06-22T08:29:57;19.02;;;5.70;;
33279;SDS011;20403;43.114;12.434;2023-06-22T08:32:24;11.40;;;5.68;;
33279;SDS011;20403;43.114;12.434;2023-06-22T08:34:53;11.73;;;5.75;;
33279;SDS011;20403;43.114;12.434;2023-06-22T08:37:22;11.25;;;5.72;;
33279;SDS011;20403;43.114;12.434;2023-06-22T08:39:58;11.25;;;5.57;;
33279;SDS011;20403;43.114;12.434;2023-06-22T08:42:25;10.80;;;5.22;;
33279;SDS011;20403;43.114;12.434;2023-06-22T08:44:50;11.52;;;5.18;;
33279;SDS011;20403;43.114;12.434;2023-06-22T08:47:16;21.38;;;5.80;;
33279;SDS011;20403;43.114;12.434;2023-06-22T08:49:42;12.57;;;5.47;;
33279;SDS011;20403;43.114;12.434;2023-06-22T08:52:07;8.00;;;5.50;;
33279;SDS011;20403;43.114;12.434;2023-06-22T08:54:33;10.40;;;5.80;;
33279;SDS011;20403;43.114;12.434;2023-06-22T08:56:59;13.57;;;5.72;;
33279;SDS011;20403;43.114;12.434;2023-06-22T08:59:25;12.93;;;5.75;;
33279;SDS011;20403;43.114;12.434;2023-06-22T09:01:51;13.27;;;5.50;;
33279;SDS011;20403;43.114;12.434;2023-06-22T09:04:16;13.48;;;5.80;;
33279;SDS011;20403;43.114;12.434;2023-06-22T09:06:42;14.32;;;5.47;;
33279;SDS011;20403;43.114;12.434;2023-06-22T09:09:12;19.45;;;5.78;;
33279;SDS011;20403;43.114;12.434;2023-06-22T09:11:37;15.93;;;5.65;;
33279;SDS011;20403;43.114;12.434;2023-06-22T09:14:03;13.48;;;5.78;;
33279;SDS011;20403;43.114;12.434;2023-06-22T09:16:29;15.75;;;5.40;;
33279;SDS011;20403;43.114;12.434;2023-06-22T09:18:55;11.73;;;5.10;;
33279;SDS011;20403;43.114;12.434;2023-06-22T09:21:20;12.35;;;5.05;;
33279;SDS011;20403;43.114;12.434;2023-06-22T09:23:46;11.25;;;5.32;;
33279;SDS011;20403;43.114;12.434;2023-06-22T09:26:15;20.17;;;5.72;;
33279;SDS011;20403;43.114;12.434;2023-06-22T09:28:40;16.35;;;5.63;;
33279;SDS011;20403;43.114;12.434;2023-06-22T09:31:07;14.20;;;5.10;;
33279;SDS011;20403;43.114;12.434;2023-06-22T09:33:32;14.45;;;5.57;;
33279;SDS011;20403;43.114;12.434;2023-06-22T09:35:58;13.98;;;5.63;;
33279;SDS011;20403;43.114;12.434;2023-06-22T09:38:23;13.55;;;6.00;;
33279;SDS011;20403;43.114;12.434;2023-06-22T09:40:48;8.48;;;5.38;;
33279;SDS011;20403;43.114;12.434;2023-06-22T09:43:14;13.15;;;5.63;;
33279;SDS011;20403;43.114;12.434;2023-06-22T09:45:39;19.38;;;5.47;;
33279;SDS011;20403;43.114;12.434;2023-06-22T09:48:05;11.70;;;5.28;;
33279;SDS011;20403;43.114;12.434;2023-06-22T09:50:30;14.02;;;5.68;;
33279;SDS011;20403;43.114;12.434;2023-06-22T09:52:56;12.65;;;5.63;;
33279;SDS011;20403;43.114;12.434;2023-06-22T09:55:21;23.35;;;5.65;;
33279;SDS011;20403;43.114;12.434;2023-06-22T09:57:47;16.73;;;5.60;;
33279;SDS011;20403;43.114;12.434;2023-06-22T10:00:13;18.85;;;4.97;;
33279;SDS011;20403;43.114;12.434;2023-06-22T10:02:41;15.13;;;5.85;;
33279;SDS011;20403;43.114;12.434;2023-06-22T10:05:07;13.82;;;5.30;;
33279;SDS011;20403;43.114;12.434;2023-06-22T10:07:32;14.25;;;5.82;;
33279;SDS011;20403;43.114;12.434;2023-06-22T10:09:58;17.52;;;5.20;;
33279;SDS011;20403;43.114;12.434;2023-06-22T10:12:24;11.60;;;5.03;;
33279;SDS011;20403;43.114;12.434;2023-06-22T10:14:49;14.73;;;5.50;;
33279;SDS011;20403;43.114;12.434;2023-06-22T10:17:14;14.40;;;5.68;;
33279;SDS011;20403;43.114;12.434;2023-06-22T10:19:40;13.68;;;6.03;;
33279;SDS011;20403;43.114;12.434;2023-06-22T10:22:06;15.27;;;5.63;;
33279;SDS011;20403;43.114;12.434;2023-06-22T10:24:32;13.85;;;5.88;;
33279;SDS011;20403;43.114;12.434;2023-06-22T10:26:57;10.73;;;5.38;;
33279;SDS011;20403;43.114;12.434;2023-06-22T10:29:23;13.23;;;5.50;;
33279;SDS011;20403;43.114;12.434;2023-06-22T10:31:48;17.88;;;6.05;;
33279;SDS011;20403;43.114;12.434;2023-06-22T10:34:14;16.67;;;5.55;;
33279;SDS011;20403;43.114;12.434;2023-06-22T10:36:39;18.55;;;5.45;;
33279;SDS011;20403;43.114;12.434;2023-06-22T10:39:04;19.30;;;5.72;;
33279;SDS011;20403;43.114;12.434;2023-06-22T10:41:30;16.58;;;4.70;;
33279;SDS011;20403;43.114;12.434;2023-06-22T10:43:56;21.17;;;5.05;;
33279;SDS011;20403;43.114;12.434;2023-06-22T10:46:21;15.70;;;4.95;;
33279;SDS011;20403;43.114;12.434;2023-06-22T10:48:49;17.70;;;4.85;;
33279;SDS011;20403;43.114;12.434;2023-06-22T10:51:14;16.30;;;4.38;;
33279;SDS011;20403;43.114;12.434;2023-06-22T10:53:39;12.27;;;4.35;;
33279;SDS011;20403;43.114;12.434;2023-06-22T10:56:05;15.40;;;4.10;;
33279;SDS011;20403;43.114;12.434;2023-06-22T10:58:30;12.73;;;4.40;;
33279;SDS011;20403;43.114;12.434;2023-06-22T11:00:56;20.85;;;4.45;;
33279;SDS011;20403;43.114;12.434;2023-06-22T11:03:21;16.67;;;5.25;;
33279;SDS011;20403;43.114;12.434;2023-06-22T11:05:46;11.93;;;4.40;;
33279;SDS011;20403;43.114;12.434;2023-06-22T11:08:12;19.08;;;4.97;;
33279;SDS011;20403;43.114;12.434;2023-06-22T11:10:38;18.63;;;4.95;;
33279;SDS011;20403;43.114;12.434;2023-06-22T11:13:03;12.85;;;4.97;;
33279;SDS011;20403;43.114;12.434;2023-06-22T11:15:30;14.90;;;4.80;;
33279;SDS011;20403;43.114;12.434;2023-06-22T11:17:55;15.35;;;4.88;;
33279;SDS011;20403;43.114;12.434;2023-06-22T11:20:21;17.25;;;4.93;;
33279;SDS011;20403;43.114;12.434;2023-06-22T11:22:46;18.85;;;4.68;;
33279;SDS011;20403;43.114;12.434;2023-06-22T11:25:12;11.57;;;3.75;;
33279;SDS011;20403;43.114;12.434;2023-06-22T11:27:37;14.73;;;3.75;;
33279;SDS011;20403;43.114;12.434;2023-06-22T11:30:03;10.43;;;3.92;;
33279;SDS011;20403;43.114;12.434;2023-06-22T11:32:29;11.75;;;3.80;;
33279;SDS011;20403;43.114;12.434;2023-06-22T11:34:54;9.50;;;3.90;;
33279;SDS011;20403;43.114;12.434;2023-06-22T11:37:20;12.20;;;3.28;;
33279;SDS011;20403;43.114;12.434;2023-06-22T11:39:45;12.50;;;3.58;;
33279;SDS011;20403;43.114;12.434;2023-06-22T11:42:11;12.98;;;3.00;;
33279;SDS011;20403;43.114;12.434;2023-06-22T11:44:36;10.23;;;3.67;;
33279;SDS011;20403;43.114;12.434;2023-06-22T11:47:02;14.80;;;3.45;;
33279;SDS011;20403;43.114;12.434;2023-06-22T11:49:29;6.72;;;3.13;;
33279;SDS011;20403;43.114;12.434;2023-06-22T11:51:55;13.52;;;2.80;;
33279;SDS011;20403;43.114;12.434;2023-06-22T11:54:21;10.00;;;2.75;;
33279;SDS011;20403;43.114;12.434;2023-06-22T11:56:46;8.23;;;3.25;;
33279;SDS011;20403;43.114;12.434;2023-06-22T11:59:12;11.95;;;3.40;;
33279;SDS011;20403;43.114;12.434;2023-06-22T12:01:38;16.13;;;3.88;;
33279;SDS011;20403;43.114;12.434;2023-06-22T12:04:03;15.93;;;3.22;;
33279;SDS011;20403;43.114;12.434;2023-06-22T12:06:31;14.40;;;3.28;;
33279;SDS011;20403;43.114;12.434;2023-06-22T12:08:57;11.02;;;3.47;;
33279;SDS011;20403;43.114;12.434;2023-06-22T12:11:23;14.63;;;4.05;;
33279;SDS011;20403;43.114;12.434;2023-06-22T12:13:48;19.50;;;3.97;;
33279;SDS011;20403;43.114;12.434;2023-06-22T12:16:14;10.68;;;3.40;;
33279;SDS011;20403;43.114;12.434;2023-06-22T12:18:39;16.10;;;3.72;;
33279;SDS011;20403;43.114;12.434;2023-06-22T12:21:04;8.65;;;3.38;;
33279;SDS011;20403;43.114;12.434;2023-06-22T12:23:30;7.82;;;3.03;;
33279;SDS011;20403;43.114;12.434;2023-06-22T12:25:55;10.85;;;3.20;;
33279;SDS011;20403;43.114;12.434;2023-06-22T12:28:21;11.18;;;2.90;;
33279;SDS011;20403;43.114;12.434;2023-06-22T12:30:48;11.38;;;2.95;;
33279;SDS011;20403;43.114;12.434;2023-06-22T12:33:13;13.65;;;2.55;;
33279;SDS011;20403;43.114;12.434;2023-06-22T12:35:39;16.08;;;3.05;;
33279;SDS011;20403;43.114;12.434;2023-06-22T12:38:04;10.90;;;3.20;;
33279;SDS011;20403;43.114;12.434;2023-06-22T12:40:32;11.35;;;2.47;;
33279;SDS011;20403;43.114;12.434;2023-06-22T12:42:58;14.70;;;3.10;;
33279;SDS011;20403;43.114;12.434;2023-06-22T12:45:23;13.48;;;3.20;;
33279;SDS011;20403;43.114;12.434;2023-06-22T12:47:50;8.50;;;2.67;;
33279;SDS011;20403;43.114;12.434;2023-06-22T12:50:15;13.45;;;2.88;;
33279;SDS011;20403;43.114;12.434;2023-06-22T12:52:41;15.55;;;3.00;;
33279;SDS011;20403;43.114;12.434;2023-06-22T12:55:07;17.85;;;2.78;;
33279;SDS011;20403;43.114;12.434;2023-06-22T12:57:33;13.48;;;2.95;;
33279;SDS011;20403;43.114;12.434;2023-06-22T12:59:58;20.30;;;3.45;;
33279;SDS011;20403;43.114;12.434;2023-06-22T13:02:25;14.57;;;3.42;;
33279;SDS011;20403;43.114;12.434;2023-06-22T13:04:51;13.45;;;3.33;;
33279;SDS011;20403;43.114;12.434;2023-06-22T13:07:16;13.38;;;3.38;;
33279;SDS011;20403;43.114;12.434;2023-06-22T13:09:41;20.02;;;3.30;;
33279;SDS011;20403;43.114;12.434;2023-06-22T13:12:07;17.80;;;3.35;;
33279;SDS011;20403;43.114;12.434;2023-06-22T13:14:33;12.95;;;3.40;;
33279;SDS011;20403;43.114;12.434;2023-06-22T13:16:58;13.43;;;3.38;;
33279;SDS011;20403;43.114;12.434;2023-06-22T13:19:23;13.52;;;3.95;;
33279;SDS011;20403;43.114;12.434;2023-06-22T13:21:49;10.95;;;3.13;;
33279;SDS011;20403;43.114;12.434;2023-06-22T13:24:15;13.68;;;3.58;;
33279;SDS011;20403;43.114;12.434;2023-06-22T13:26:41;16.83;;;4.03;;
33279;SDS011;20403;43.114;12.434;2023-06-22T13:29:06;23.60;;;5.15;;
33279;SDS011;20403;43.114;12.434;2023-06-22T13:31:32;18.52;;;4.20;;
33279;SDS011;20403;43.114;12.434;2023-06-22T13:33:57;19.95;;;3.88;;
33279;SDS011;20403;43.114;12.434;2023-06-22T13:36:23;17.35;;;3.78;;
33279;SDS011;20403;43.114;12.434;2023-06-22T13:38:48;18.17;;;3.80;;
33279;SDS011;20403;43.114;12.434;2023-06-22T13:41:14;11.50;;;3.70;;
33279;SDS011;20403;43.114;12.434;2023-06-22T13:43:39;20.45;;;4.57;;
33279;SDS011;20403;43.114;12.434;2023-06-22T13:46:05;13.38;;;3.70;;
33279;SDS011;20403;43.114;12.434;2023-06-22T13:48:30;23.88;;;3.67;;
33279;SDS011;20403;43.114;12.434;2023-06-22T13:50:55;25.27;;;4.00;;
33279;SDS011;20403;43.114;12.434;2023-06-22T13:53:21;9.90;;;3.20;;
33279;SDS011;20403;43.114;12.434;2023-06-22T13:55:46;25.10;;;4.38;;
33279;SDS011;20403;43.114;12.434;2023-06-22T13:58:12;23.10;;;4.13;;
33279;SDS011;20403;43.114;12.434;2023-06-22T14:00:38;29.75;;;4.05;;
33279;SDS011;20403;43.114;12.434;2023-06-22T14:03:04;23.30;;;4.25;;
33279;SDS011;20403;43.114;12.434;2023-06-22T14:05:29;20.60;;;3.53;;
33279;SDS011;20403;43.114;12.434;2023-06-22T14:07:54;16.73;;;3.67;;
33279;SDS011;20403;43.114;12.434;2023-06-22T14:10:20;29.65;;;3.80;;
33279;SDS011;20403;43.114;12.434;2023-06-22T14:12:45;23.77;;;4.22;;
33279;SDS011;20403;43.114;12.434;2023-06-22T14:15:11;18.65;;;3.97;;
33279;SDS011;20403;43.114;12.434;2023-06-22T14:17:36;20.80;;;3.80;;
33279;SDS011;20403;43.114;12.434;2023-06-22T14:20:02;26.13;;;4.43;;
33279;SDS011;20403;43.114;12.434;2023-06-22T14:22:28;23.58;;;4.53;;
33279;SDS011;20403;43.114;12.434;2023-06-22T14:24:54;26.30;;;4.38;;
33279;SDS011;20403;43.114;12.434;2023-06-22T14:27:22;15.63;;;3.67;;
33279;SDS011;20403;43.114;12.434;2023-06-22T14:29:48;21.20;;;4.75;;
33279;SDS011;20403;43.114;12.434;2023-06-22T14:32:14;18.10;;;4.53;;